createdAt,value
2018-12-25T00:00:03.236Z,3.67
2018-12-25T00:00:07.532Z,3.67
2018-12-25T00:00:11.823Z,3.67
2018-12-25T00:00:16.095Z,3.67
2018-12-25T00:00:20.392Z,3.68
2018-12-25T00:00:24.683Z,3.67
2018-12-25T00:00:28.967Z,3.67
2018-12-25T00:00:33.252Z,3.67
2018-12-25T00:00:37.543Z,3.67
2018-12-25T00:00:41.834Z,3.67
2018-12-25T00:00:46.239Z,3.67
2018-12-25T00:00:50.529Z,3.67
2018-12-25T00:00:54.812Z,3.67
2018-12-25T00:00:59.096Z,3.67
2018-12-25T00:01:03.481Z,3.67
2018-12-25T00:01:07.772Z,3.68
2018-12-25T00:01:12.077Z,3.68
2018-12-25T00:01:16.379Z,3.67
2018-12-25T00:01:20.673Z,3.67
2018-12-25T00:01:25.063Z,3.68
2018-12-25T00:01:29.347Z,3.68
2018-12-25T00:01:33.633Z,3.68
2018-12-25T00:01:37.923Z,3.68
2018-12-25T00:01:42.315Z,3.67
2018-12-25T00:01:46.621Z,3.68
2018-12-25T00:01:50.982Z,3.67
2018-12-25T00:01:55.272Z,3.68
2018-12-25T00:01:59.561Z,3.67
2018-12-25T00:02:03.859Z,3.68
2018-12-25T00:02:08.148Z,3.68
2018-12-25T00:02:12.437Z,3.67
2018-12-25T00:02:16.727Z,3.68
2018-12-25T00:02:21.015Z,3.68
2018-12-25T00:02:25.311Z,3.68
2018-12-25T00:02:29.606Z,3.68
2018-12-25T00:02:33.895Z,3.69
2018-12-25T00:02:38.213Z,3.69
2018-12-25T00:02:42.514Z,3.68
2018-12-25T00:02:46.806Z,3.68
2018-12-25T00:02:51.102Z,3.69
2018-12-25T00:02:55.398Z,3.69
2018-12-25T00:02:59.692Z,3.69
2018-12-25T00:03:03.983Z,3.69
2018-12-25T00:03:08.275Z,3.69
2018-12-25T00:03:12.478Z,3.69
2018-12-25T00:03:16.775Z,3.69
2018-12-25T00:03:21.066Z,3.68
2018-12-25T00:03:25.261Z,3.7
2018-12-25T00:03:29.547Z,3.69
2018-12-25T00:03:33.839Z,3.69
2018-12-25T00:03:38.037Z,3.69
2018-12-25T00:03:42.331Z,3.7
2018-12-25T00:03:46.626Z,3.69
2018-12-25T00:03:50.919Z,3.69
2018-12-25T00:03:55.012Z,3.68
2018-12-25T00:03:59.201Z,3.69
2018-12-25T00:04:03.394Z,3.7
2018-12-25T00:04:07.785Z,3.69
2018-12-25T00:04:12.261Z,3.69
2018-12-25T00:04:16.547Z,3.69
2018-12-25T00:04:20.813Z,3.69
2018-12-25T00:04:25.097Z,3.69
2018-12-25T00:04:29.384Z,3.69
2018-12-25T00:04:33.686Z,3.69
2018-12-25T00:04:37.976Z,3.69
2018-12-25T00:04:42.259Z,3.69
2018-12-25T00:04:46.554Z,3.69
2018-12-25T00:04:50.864Z,3.68
2018-12-25T00:04:55.153Z,3.69
2018-12-25T00:04:59.349Z,3.69
2018-12-25T00:05:03.772Z,3.7
2018-12-25T00:05:08.062Z,3.7
2018-12-25T00:05:12.352Z,3.68
2018-12-25T00:05:16.642Z,3.7
2018-12-25T00:05:20.930Z,3.7
2018-12-25T00:05:25.218Z,3.69
2018-12-25T00:05:29.536Z,3.69
2018-12-25T00:05:33.825Z,3.7
2018-12-25T00:05:38.018Z,3.7
2018-12-25T00:05:42.311Z,3.7
2018-12-25T00:05:46.500Z,3.68
2018-12-25T00:05:50.794Z,3.7
2018-12-25T00:05:54.988Z,3.69
2018-12-25T00:05:59.296Z,3.7
2018-12-25T00:06:03.583Z,3.7
2018-12-25T00:06:07.976Z,3.7
2018-12-25T00:06:12.265Z,3.7
2018-12-25T00:06:16.634Z,3.7
2018-12-25T00:06:20.925Z,3.71
2018-12-25T00:06:25.211Z,3.7
2018-12-25T00:06:29.501Z,3.7
2018-12-25T00:06:33.800Z,3.7
2018-12-25T00:06:38.088Z,3.69
2018-12-25T00:06:42.375Z,3.71
2018-12-25T00:06:48.517Z,3.7
2018-12-25T00:06:52.812Z,3.71
2018-12-25T00:06:57.027Z,3.7
2018-12-25T00:07:01.312Z,3.71
2018-12-25T00:07:05.609Z,3.7
2018-12-25T00:07:09.898Z,3.71
2018-12-25T00:07:14.191Z,3.7
2018-12-25T00:07:18.492Z,3.71
2018-12-25T00:07:22.777Z,3.71
2018-12-25T00:07:26.992Z,3.7
2018-12-25T00:07:31.286Z,3.71
2018-12-25T00:07:35.577Z,3.71
2018-12-25T00:07:39.877Z,3.7
2018-12-25T00:07:44.165Z,3.71
2018-12-25T00:07:48.451Z,3.71
2018-12-25T00:07:52.743Z,3.7
2018-12-25T00:07:56.944Z,3.72
2018-12-25T00:08:01.242Z,3.71
2018-12-25T00:08:05.532Z,3.72
2018-12-25T00:08:09.802Z,3.71
2018-12-25T00:08:14.087Z,3.72
2018-12-25T00:08:18.383Z,3.71
2018-12-25T00:08:22.673Z,3.72
2018-12-25T00:08:26.960Z,3.72
2018-12-25T00:08:31.252Z,3.72
2018-12-25T00:08:35.536Z,3.72
2018-12-25T00:08:39.824Z,3.72
2018-12-25T00:08:44.110Z,3.72
2018-12-25T00:08:48.461Z,3.72
2018-12-25T00:08:52.756Z,3.72
2018-12-25T00:08:57.046Z,3.73
2018-12-25T00:09:01.339Z,3.74
2018-12-25T00:09:05.643Z,3.73
2018-12-25T00:09:09.943Z,3.73
2018-12-25T00:09:14.226Z,3.74
2018-12-25T00:09:18.514Z,3.73
2018-12-25T00:09:22.815Z,3.73
2018-12-25T00:09:27.105Z,3.73
2018-12-25T00:09:31.302Z,3.73
2018-12-25T00:09:35.601Z,3.73
2018-12-25T00:09:39.892Z,3.73
2018-12-25T00:09:44.088Z,3.73
2018-12-25T00:09:48.378Z,3.73
2018-12-25T00:09:52.668Z,3.73
2018-12-25T00:09:56.864Z,3.73
2018-12-25T00:10:01.164Z,3.72
2018-12-25T00:10:05.463Z,3.73
2018-12-25T00:10:09.763Z,3.74
2018-12-25T00:10:13.959Z,3.74
2018-12-25T00:10:18.345Z,3.73
2018-12-25T00:10:22.640Z,3.74
2018-12-25T00:10:26.923Z,3.74
2018-12-25T00:10:31.209Z,3.74
2018-12-25T00:10:35.500Z,3.73
2018-12-25T00:10:39.811Z,3.73
2018-12-25T00:10:44.094Z,3.73
2018-12-25T00:10:48.384Z,3.74
2018-12-25T00:10:52.673Z,3.74
2018-12-25T00:10:56.971Z,3.73
2018-12-25T00:11:01.256Z,3.73
2018-12-25T00:11:05.544Z,3.74
2018-12-25T00:11:09.744Z,3.74
2018-12-25T00:11:14.037Z,3.75
2018-12-25T00:11:18.326Z,3.74
2018-12-25T00:11:22.621Z,3.74
2018-12-25T00:11:26.907Z,3.74
2018-12-25T00:11:31.103Z,3.75
2018-12-25T00:11:35.388Z,3.74
2018-12-25T00:11:39.679Z,3.74
2018-12-25T00:11:43.974Z,3.74
2018-12-25T00:11:48.177Z,3.74
2018-12-25T00:11:52.467Z,3.74
2018-12-25T00:11:56.752Z,3.74
2018-12-25T00:12:01.043Z,3.75
2018-12-25T00:12:05.387Z,3.74
2018-12-25T00:12:09.679Z,3.75
2018-12-25T00:12:13.965Z,3.74
2018-12-25T00:12:18.251Z,3.75
2018-12-25T00:12:22.537Z,3.74
2018-12-25T00:12:26.828Z,3.75
2018-12-25T00:12:31.114Z,3.75
2018-12-25T00:12:35.415Z,3.75
2018-12-25T00:12:39.699Z,3.75
2018-12-25T00:12:44.116Z,3.75
2018-12-25T00:12:48.404Z,3.74
2018-12-25T00:12:52.691Z,3.74
2018-12-25T00:12:56.983Z,3.75
2018-12-25T00:13:01.190Z,3.75
2018-12-25T00:13:05.473Z,3.75
2018-12-25T00:13:09.771Z,3.76
2018-12-25T00:13:14.065Z,3.75
2018-12-25T00:13:18.353Z,3.75
2018-12-25T00:13:22.542Z,3.75
2018-12-25T00:13:26.831Z,3.75
2018-12-25T00:13:31.116Z,3.75
2018-12-25T00:13:35.404Z,3.75
2018-12-25T00:13:39.786Z,3.76
2018-12-25T00:13:44.069Z,3.75
2018-12-25T00:13:48.370Z,3.76
2018-12-25T00:13:52.660Z,3.76
2018-12-25T00:13:56.943Z,3.77
2018-12-25T00:14:01.228Z,3.76
2018-12-25T00:14:07.683Z,3.76
2018-12-25T00:14:11.979Z,3.76
2018-12-25T00:14:16.283Z,3.76
2018-12-25T00:14:20.476Z,3.77
2018-12-25T00:14:24.771Z,3.77
2018-12-25T00:14:29.082Z,3.76
2018-12-25T00:14:33.387Z,3.76
2018-12-25T00:14:37.681Z,3.76
2018-12-25T00:14:41.878Z,3.77
2018-12-25T00:14:46.171Z,3.77
2018-12-25T00:14:50.461Z,3.77
2018-12-25T00:14:54.754Z,3.77
2018-12-25T00:14:59.045Z,3.77
2018-12-25T00:15:03.244Z,3.77
2018-12-25T00:15:07.534Z,3.77
2018-12-25T00:15:11.832Z,3.77
2018-12-25T00:15:16.165Z,3.78
2018-12-25T00:15:20.457Z,3.77
2018-12-25T00:15:24.750Z,3.77
2018-12-25T00:15:29.039Z,3.77
2018-12-25T00:15:33.356Z,3.78
2018-12-25T00:15:37.550Z,3.77
2018-12-25T00:15:41.841Z,3.77
2018-12-25T00:15:46.133Z,3.78
2018-12-25T00:15:50.424Z,3.78
2018-12-25T00:15:54.622Z,3.78
2018-12-25T00:15:58.915Z,3.77
2018-12-25T00:16:03.207Z,3.78
2018-12-25T00:16:07.494Z,3.78
2018-12-25T00:16:11.786Z,3.77
2018-12-25T00:16:16.080Z,3.77
2018-12-25T00:16:20.471Z,3.77
2018-12-25T00:16:24.770Z,3.78
2018-12-25T00:16:29.057Z,3.77
2018-12-25T00:16:33.340Z,3.77
2018-12-25T00:16:37.656Z,3.77
2018-12-25T00:16:41.957Z,3.77
2018-12-25T00:16:46.243Z,3.76
2018-12-25T00:16:50.538Z,3.77
2018-12-25T00:16:54.832Z,3.77
2018-12-25T00:16:59.118Z,3.77
2018-12-25T00:17:03.405Z,3.77
2018-12-25T00:17:07.613Z,3.76
2018-12-25T00:17:11.941Z,3.76
2018-12-25T00:17:16.233Z,3.77
2018-12-25T00:17:20.633Z,3.77
2018-12-25T00:17:24.925Z,3.77
2018-12-25T00:17:29.213Z,3.78
2018-12-25T00:17:33.499Z,3.77
2018-12-25T00:17:37.687Z,3.77
2018-12-25T00:17:41.978Z,3.77
2018-12-25T00:17:46.262Z,3.77
2018-12-25T00:17:50.547Z,3.76
2018-12-25T00:17:54.739Z,3.77
2018-12-25T00:17:58.934Z,3.77
2018-12-25T00:18:03.137Z,3.77
2018-12-25T00:18:07.448Z,3.77
2018-12-25T00:18:11.741Z,3.77
2018-12-25T00:18:16.027Z,3.77
2018-12-25T00:18:20.314Z,3.77
2018-12-25T00:18:24.406Z,3.77
2018-12-25T00:18:28.592Z,3.76
2018-12-25T00:18:32.890Z,3.76
2018-12-25T00:18:36.988Z,3.76
2018-12-25T00:18:41.278Z,3.76
2018-12-25T00:18:45.567Z,3.77
2018-12-25T00:18:49.851Z,3.76
2018-12-25T00:18:54.042Z,3.77
2018-12-25T00:19:06.748Z,3.76
2018-12-25T00:19:11.039Z,3.76
2018-12-25T00:19:15.328Z,3.76
2018-12-25T00:19:19.613Z,3.75
2018-12-25T00:19:23.904Z,3.76
2018-12-25T00:19:28.189Z,3.76
2018-12-25T00:19:32.476Z,3.75
2018-12-25T00:19:36.764Z,3.76
2018-12-25T00:19:41.064Z,3.76
2018-12-25T00:19:45.357Z,3.76
2018-12-25T00:19:49.638Z,3.76
2018-12-25T00:19:54.036Z,3.75
2018-12-25T00:19:58.332Z,3.76
2018-12-25T00:20:02.640Z,3.76
2018-12-25T00:20:06.927Z,3.75
2018-12-25T00:20:11.226Z,3.76
2018-12-25T00:20:15.510Z,3.77
2018-12-25T00:20:19.696Z,3.76
2018-12-25T00:20:23.982Z,3.76
2018-12-25T00:20:28.173Z,3.75
2018-12-25T00:20:34.167Z,3.77
2018-12-25T00:20:38.461Z,3.76
2018-12-25T00:20:42.662Z,3.76
2018-12-25T00:20:46.864Z,3.76
2018-12-25T00:20:51.155Z,3.76
2018-12-25T00:20:55.449Z,3.76
2018-12-25T00:20:59.845Z,3.76
2018-12-25T00:21:04.230Z,3.75
2018-12-25T00:21:08.519Z,3.76
2018-12-25T00:21:12.821Z,3.77
2018-12-25T00:21:17.112Z,3.76
2018-12-25T00:21:21.304Z,3.76
2018-12-25T00:21:25.599Z,3.76
2018-12-25T00:21:29.895Z,3.76
2018-12-25T00:21:34.180Z,3.76
2018-12-25T00:21:38.368Z,3.77
2018-12-25T00:21:42.655Z,3.77
2018-12-25T00:21:46.955Z,3.76
2018-12-25T00:21:51.247Z,3.77
2018-12-25T00:21:55.535Z,3.77
2018-12-25T00:21:59.822Z,3.77
2018-12-25T00:22:04.111Z,3.78
2018-12-25T00:22:08.411Z,3.77
2018-12-25T00:22:12.700Z,3.76
2018-12-25T00:22:16.989Z,3.76
2018-12-25T00:22:21.278Z,3.77
2018-12-25T00:22:25.688Z,3.77
2018-12-25T00:22:29.981Z,3.76
2018-12-25T00:22:34.265Z,3.77
2018-12-25T00:22:38.557Z,3.77
2018-12-25T00:22:42.842Z,3.77
2018-12-25T00:22:47.136Z,3.76
2018-12-25T00:22:51.432Z,3.77
2018-12-25T00:22:55.719Z,3.77
2018-12-25T00:23:00.014Z,3.77
2018-12-25T00:23:04.276Z,3.77
2018-12-25T00:23:08.577Z,3.77
2018-12-25T00:23:12.865Z,3.77
2018-12-25T00:23:17.155Z,3.76
2018-12-25T00:23:21.449Z,3.77
2018-12-25T00:23:25.738Z,3.77
2018-12-25T00:23:30.023Z,3.77
2018-12-25T00:23:34.309Z,3.77
2018-12-25T00:23:38.595Z,3.78
2018-12-25T00:23:42.966Z,3.77
2018-12-25T00:23:47.260Z,3.77
2018-12-25T00:23:51.547Z,3.78
2018-12-25T00:23:55.882Z,3.76
2018-12-25T00:24:00.084Z,3.77
2018-12-25T00:24:04.373Z,3.78
2018-12-25T00:24:08.665Z,3.77
2018-12-25T00:24:12.954Z,3.76
2018-12-25T00:24:17.247Z,3.77
2018-12-25T00:24:21.538Z,3.77
2018-12-25T00:24:25.831Z,3.77
2018-12-25T00:24:30.124Z,3.77
2018-12-25T00:24:34.414Z,3.77
2018-12-25T00:24:38.712Z,3.77
2018-12-25T00:24:43.002Z,3.77
2018-12-25T00:24:47.290Z,3.76
2018-12-25T00:24:51.581Z,3.77
2018-12-25T00:24:55.871Z,3.78
2018-12-25T00:25:00.179Z,3.78
2018-12-25T00:25:04.525Z,3.78
2018-12-25T00:25:08.817Z,3.77
2018-12-25T00:25:13.102Z,3.78
2018-12-25T00:25:17.392Z,3.77
2018-12-25T00:25:21.582Z,3.77
2018-12-25T00:25:25.777Z,3.77
2018-12-25T00:25:30.064Z,3.78
2018-12-25T00:25:34.349Z,3.78
2018-12-25T00:25:38.653Z,3.78
2018-12-25T00:25:42.944Z,3.77
2018-12-25T00:25:47.346Z,3.77
2018-12-25T00:25:51.634Z,3.77
2018-12-25T00:25:55.924Z,3.77
2018-12-25T00:26:00.321Z,3.77
2018-12-25T00:26:04.667Z,3.77
2018-12-25T00:26:08.859Z,3.76
2018-12-25T00:26:13.149Z,3.77
2018-12-25T00:26:17.533Z,3.78
2018-12-25T00:26:21.820Z,3.79
2018-12-25T00:26:26.073Z,3.78
2018-12-25T00:26:30.364Z,3.77
2018-12-25T00:26:34.650Z,3.77
2018-12-25T00:26:38.941Z,3.77
2018-12-25T00:26:43.219Z,3.78
2018-12-25T00:26:47.514Z,3.78
2018-12-25T00:26:51.706Z,3.78
2018-12-25T00:26:56.046Z,3.78
2018-12-25T00:27:00.337Z,3.78
2018-12-25T00:27:04.827Z,3.78
2018-12-25T00:27:09.124Z,3.78
2018-12-25T00:27:13.418Z,3.77
2018-12-25T00:27:17.705Z,3.77
2018-12-25T00:27:21.990Z,3.78
2018-12-25T00:27:26.182Z,3.78
2018-12-25T00:27:30.466Z,3.77
2018-12-25T00:27:34.751Z,3.77
2018-12-25T00:27:39.035Z,3.78
2018-12-25T00:27:43.318Z,3.77
2018-12-25T00:27:47.612Z,3.77
2018-12-25T00:27:51.901Z,3.78
2018-12-25T00:27:56.188Z,3.78
2018-12-25T00:28:00.581Z,3.77
2018-12-25T00:28:04.869Z,3.77
2018-12-25T00:28:09.161Z,3.78
2018-12-25T00:28:13.454Z,3.77
2018-12-25T00:28:17.737Z,3.77
2018-12-25T00:28:22.031Z,3.78
2018-12-25T00:28:26.321Z,3.78
2018-12-25T00:28:30.609Z,3.78
2018-12-25T00:28:34.898Z,3.77
2018-12-25T00:28:39.209Z,3.77
2018-12-25T00:28:43.495Z,3.77
2018-12-25T00:28:47.777Z,3.77
2018-12-25T00:28:52.066Z,3.77
2018-12-25T00:28:56.358Z,3.78
2018-12-25T00:29:00.587Z,3.76
2018-12-25T00:29:04.883Z,3.77
2018-12-25T00:29:09.289Z,3.77
2018-12-25T00:29:13.576Z,3.77
2018-12-25T00:29:17.862Z,3.77
2018-12-25T00:29:22.155Z,3.76
2018-12-25T00:29:26.458Z,3.77
2018-12-25T00:29:30.750Z,3.76
2018-12-25T00:29:34.940Z,3.77
2018-12-25T00:29:39.227Z,3.76
2018-12-25T00:29:43.415Z,3.77
2018-12-25T00:29:47.703Z,3.77
2018-12-25T00:29:51.989Z,3.76
2018-12-25T00:29:56.278Z,3.77
2018-12-25T00:30:00.576Z,3.77
2018-12-25T00:30:04.891Z,3.77
2018-12-25T00:30:09.179Z,3.77
2018-12-25T00:30:13.466Z,3.77
2018-12-25T00:30:17.806Z,3.77
2018-12-25T00:30:22.097Z,3.77
2018-12-25T00:30:26.285Z,3.76
2018-12-25T00:30:30.482Z,3.77
2018-12-25T00:30:34.772Z,3.77
2018-12-25T00:30:39.063Z,3.77
2018-12-25T00:30:43.349Z,3.77
2018-12-25T00:30:47.724Z,3.77
2018-12-25T00:30:52.012Z,3.77
2018-12-25T00:30:56.309Z,3.78
2018-12-25T00:31:00.595Z,3.77
2018-12-25T00:31:05.083Z,3.77
2018-12-25T00:31:09.375Z,3.76
2018-12-25T00:31:13.661Z,3.76
2018-12-25T00:31:17.947Z,3.77
2018-12-25T00:31:22.143Z,3.77
2018-12-25T00:31:26.429Z,3.76
2018-12-25T00:31:30.714Z,3.76
2018-12-25T00:31:35.007Z,3.76
2018-12-25T00:31:39.304Z,3.77
2018-12-25T00:31:43.606Z,3.76
2018-12-25T00:31:47.895Z,3.76
2018-12-25T00:31:52.184Z,3.77
2018-12-25T00:31:56.554Z,3.76
2018-12-25T00:32:00.846Z,3.77
2018-12-25T00:32:05.146Z,3.76
2018-12-25T00:32:09.435Z,3.76
2018-12-25T00:32:13.726Z,3.76
2018-12-25T00:32:18.019Z,3.76
2018-12-25T00:32:22.311Z,3.76
2018-12-25T00:32:26.594Z,3.76
2018-12-25T00:32:30.687Z,3.76
2018-12-25T00:32:34.973Z,3.76
2018-12-25T00:32:39.259Z,3.76
2018-12-25T00:32:43.553Z,3.76
2018-12-25T00:32:47.834Z,3.74
2018-12-25T00:32:52.125Z,3.76
2018-12-25T00:32:56.413Z,3.75
2018-12-25T00:33:00.702Z,3.75
2018-12-25T00:33:05.192Z,3.75
2018-12-25T00:33:09.483Z,3.76
2018-12-25T00:33:13.778Z,3.75
2018-12-25T00:33:18.064Z,3.76
2018-12-25T00:33:22.351Z,3.75
2018-12-25T00:33:26.634Z,3.75
2018-12-25T00:33:30.920Z,3.75
2018-12-25T00:33:35.207Z,3.75
2018-12-25T00:33:39.552Z,3.74
2018-12-25T00:33:43.844Z,3.75
2018-12-25T00:33:48.137Z,3.75
2018-12-25T00:33:52.325Z,3.75
2018-12-25T00:33:56.607Z,3.74
2018-12-25T00:34:00.891Z,3.75
2018-12-25T00:34:05.292Z,3.74
2018-12-25T00:34:09.576Z,3.75
2018-12-25T00:34:13.866Z,3.74
2018-12-25T00:34:18.148Z,3.75
2018-12-25T00:34:22.435Z,3.74
2018-12-25T00:34:26.721Z,3.74
2018-12-25T00:34:30.910Z,3.75
2018-12-25T00:34:35.211Z,3.74
2018-12-25T00:34:39.511Z,3.74
2018-12-25T00:34:43.839Z,3.75
2018-12-25T00:34:48.124Z,3.76
2018-12-25T00:34:52.324Z,3.75
2018-12-25T00:34:56.514Z,3.74
2018-12-25T00:35:00.986Z,3.75
2018-12-25T00:35:05.564Z,3.75
2018-12-25T00:35:09.855Z,3.74
2018-12-25T00:35:14.157Z,3.74
2018-12-25T00:35:18.346Z,3.75
2018-12-25T00:35:22.733Z,3.75
2018-12-25T00:35:27.022Z,3.75
2018-12-25T00:35:31.312Z,3.74
2018-12-25T00:35:35.599Z,3.75
2018-12-25T00:35:39.885Z,3.74
2018-12-25T00:35:44.072Z,3.74
2018-12-25T00:35:48.361Z,3.75
2018-12-25T00:35:52.646Z,3.74
2018-12-25T00:35:56.936Z,3.74
2018-12-25T00:36:01.033Z,3.73
2018-12-25T00:36:05.416Z,3.74
2018-12-25T00:36:09.707Z,3.73
2018-12-25T00:36:13.997Z,3.74
2018-12-25T00:36:18.210Z,3.73
2018-12-25T00:36:22.499Z,3.73
2018-12-25T00:36:26.785Z,3.73
2018-12-25T00:36:30.975Z,3.73
2018-12-25T00:36:35.267Z,3.73
2018-12-25T00:36:39.553Z,3.73
2018-12-25T00:36:43.851Z,3.73
2018-12-25T00:36:48.137Z,3.73
2018-12-25T00:36:52.423Z,3.73
2018-12-25T00:36:56.711Z,3.73
2018-12-25T00:37:01.003Z,3.72
2018-12-25T00:37:05.291Z,3.72
2018-12-25T00:37:09.574Z,3.72
2018-12-25T00:37:13.868Z,3.72
2018-12-25T00:37:18.155Z,3.72
2018-12-25T00:37:22.398Z,3.72
2018-12-25T00:37:26.681Z,3.72
2018-12-25T00:37:30.976Z,3.72
2018-12-25T00:37:35.168Z,3.71
2018-12-25T00:37:39.451Z,3.71
2018-12-25T00:37:43.741Z,3.72
2018-12-25T00:37:48.024Z,3.7
2018-12-25T00:37:52.310Z,3.7
2018-12-25T00:37:56.511Z,3.71
2018-12-25T00:38:00.794Z,3.71
2018-12-25T00:38:05.081Z,3.7
2018-12-25T00:38:09.369Z,3.7
2018-12-25T00:38:13.662Z,3.71
2018-12-25T00:38:17.950Z,3.7
2018-12-25T00:38:22.242Z,3.71
2018-12-25T00:38:26.535Z,3.69
2018-12-25T00:38:30.932Z,3.7
2018-12-25T00:38:35.216Z,3.69
2018-12-25T00:38:39.606Z,3.7
2018-12-25T00:38:43.892Z,3.69
2018-12-25T00:38:48.183Z,3.69
2018-12-25T00:38:52.468Z,3.7
2018-12-25T00:38:56.662Z,3.69
2018-12-25T00:39:00.948Z,3.69
2018-12-25T00:39:05.381Z,3.7
2018-12-25T00:39:09.661Z,3.7
2018-12-25T00:39:14.010Z,3.69
2018-12-25T00:39:18.305Z,3.7
2018-12-25T00:39:22.589Z,3.7
2018-12-25T00:39:26.972Z,3.7
2018-12-25T00:39:31.261Z,3.7
2018-12-25T00:39:35.547Z,3.69
2018-12-25T00:39:39.832Z,3.69
2018-12-25T00:39:44.121Z,3.69
2018-12-25T00:39:48.419Z,3.69
2018-12-25T00:39:52.708Z,3.69
2018-12-25T00:39:56.995Z,3.69
2018-12-25T00:40:01.189Z,3.68
2018-12-25T00:40:05.544Z,3.68
2018-12-25T00:40:09.833Z,3.68
2018-12-25T00:40:14.019Z,3.68
2018-12-25T00:40:18.309Z,3.67
2018-12-25T00:40:22.598Z,3.68
2018-12-25T00:40:26.883Z,3.67
2018-12-25T00:40:31.081Z,3.67
2018-12-25T00:40:35.365Z,3.67
2018-12-25T00:40:39.658Z,3.66
2018-12-25T00:40:43.944Z,3.67
2018-12-25T00:40:48.236Z,3.66
2018-12-25T00:40:52.524Z,3.66
2018-12-25T00:40:56.820Z,3.66
2018-12-25T00:41:01.109Z,3.66
2018-12-25T00:41:05.606Z,3.66
2018-12-25T00:41:09.807Z,3.65
2018-12-25T00:41:13.995Z,3.66
2018-12-25T00:41:18.286Z,3.64
2018-12-25T00:41:22.600Z,3.64
2018-12-25T00:41:26.891Z,3.64
2018-12-25T00:41:31.183Z,3.64
2018-12-25T00:41:35.370Z,3.63
2018-12-25T00:41:39.658Z,3.63
2018-12-25T00:41:43.940Z,3.63
2018-12-25T00:41:48.129Z,3.64
2018-12-25T00:41:52.411Z,3.62
2018-12-25T00:41:56.693Z,3.63
2018-12-25T00:42:00.880Z,3.63
2018-12-25T00:42:05.170Z,3.62
2018-12-25T00:42:09.533Z,3.64
2018-12-25T00:42:13.822Z,3.62
2018-12-25T00:42:18.113Z,3.63
2018-12-25T00:42:22.398Z,3.62
2018-12-25T00:42:26.585Z,3.63
2018-12-25T00:42:30.885Z,3.63
2018-12-25T00:42:35.171Z,3.63
2018-12-25T00:42:39.466Z,3.62
2018-12-25T00:42:43.753Z,3.62
2018-12-25T00:42:47.949Z,3.62
2018-12-25T00:42:52.243Z,3.62
2018-12-25T00:42:56.544Z,3.61
2018-12-25T00:43:00.735Z,3.62
2018-12-25T00:43:05.019Z,3.61
2018-12-25T00:43:09.304Z,3.62
2018-12-25T00:43:13.503Z,3.61
2018-12-25T00:43:17.689Z,3.61
2018-12-25T00:43:21.879Z,3.6
2018-12-25T00:43:26.164Z,3.6
2018-12-25T00:43:30.447Z,3.6
2018-12-25T00:43:34.731Z,3.6
2018-12-25T00:43:39.016Z,3.6
2018-12-25T00:43:43.302Z,3.59
2018-12-25T00:43:47.488Z,3.59
2018-12-25T00:43:51.775Z,3.6
2018-12-25T00:43:56.075Z,3.59
2018-12-25T00:44:00.361Z,3.59
2018-12-25T00:44:04.556Z,3.57
2018-12-25T00:44:08.852Z,3.58
2018-12-25T00:44:13.143Z,3.58
2018-12-25T00:44:17.427Z,3.58
2018-12-25T00:44:21.711Z,3.59
2018-12-25T00:44:25.997Z,3.58
2018-12-25T00:44:30.289Z,3.58
2018-12-25T00:44:34.590Z,3.57
2018-12-25T00:44:38.875Z,3.57
2018-12-25T00:44:43.161Z,3.57
2018-12-25T00:44:47.548Z,3.57
2018-12-25T00:44:51.843Z,3.57
2018-12-25T00:44:56.065Z,3.57
2018-12-25T00:45:00.366Z,3.57
2018-12-25T00:45:04.656Z,3.57
2018-12-25T00:45:08.969Z,3.56
2018-12-25T00:45:13.252Z,3.56
2018-12-25T00:45:19.863Z,3.55
2018-12-25T00:45:24.070Z,3.56
2018-12-25T00:45:28.358Z,3.55
2018-12-25T00:45:32.650Z,3.56
2018-12-25T00:45:36.875Z,3.54
2018-12-25T00:45:41.166Z,3.54
2018-12-25T00:45:45.357Z,3.54
2018-12-25T00:45:49.651Z,3.54
2018-12-25T00:45:54.024Z,3.55
2018-12-25T00:45:58.325Z,3.54
2018-12-25T00:46:02.745Z,3.54
2018-12-25T00:46:07.032Z,3.53
2018-12-25T00:46:11.322Z,3.53
2018-12-25T00:46:15.510Z,3.54
2018-12-25T00:46:19.800Z,3.53
2018-12-25T00:46:24.086Z,3.52
2018-12-25T00:46:28.372Z,3.53
2018-12-25T00:46:32.664Z,3.53
2018-12-25T00:46:36.866Z,3.53
2018-12-25T00:46:41.155Z,3.52
2018-12-25T00:46:45.375Z,3.52
2018-12-25T00:46:49.670Z,3.51
2018-12-25T00:46:53.962Z,3.53
2018-12-25T00:46:58.364Z,3.53
2018-12-25T00:47:02.658Z,3.52
2018-12-25T00:47:06.955Z,3.52
2018-12-25T00:47:11.247Z,3.52
2018-12-25T00:47:15.531Z,3.51
2018-12-25T00:47:19.820Z,3.52
2018-12-25T00:47:24.163Z,3.52
2018-12-25T00:47:28.448Z,3.51
2018-12-25T00:47:32.739Z,3.51
2018-12-25T00:47:37.029Z,3.51
2018-12-25T00:47:41.331Z,3.51
2018-12-25T00:47:45.519Z,3.52
2018-12-25T00:47:49.812Z,3.51
2018-12-25T00:47:54.098Z,3.5
2018-12-25T00:47:58.388Z,3.51
2018-12-25T00:48:02.779Z,3.52
2018-12-25T00:48:07.068Z,3.5
2018-12-25T00:48:11.353Z,3.51
2018-12-25T00:48:15.641Z,3.51
2018-12-25T00:48:19.833Z,3.51
2018-12-25T00:48:24.117Z,3.5
2018-12-25T00:48:28.402Z,3.5
2018-12-25T00:48:32.688Z,3.5
2018-12-25T00:48:36.975Z,3.5
2018-12-25T00:48:41.382Z,3.5
2018-12-25T00:48:45.665Z,3.5
2018-12-25T00:48:49.950Z,3.51
2018-12-25T00:48:54.236Z,3.5
2018-12-25T00:48:58.524Z,3.51
2018-12-25T00:49:02.808Z,3.5
2018-12-25T00:49:15.455Z,3.5
2018-12-25T00:49:19.645Z,3.49
2018-12-25T00:49:23.931Z,3.49
2018-12-25T00:49:28.251Z,3.5
2018-12-25T00:49:32.544Z,3.49
2018-12-25T00:49:36.828Z,3.5
2018-12-25T00:49:41.125Z,3.49
2018-12-25T00:49:45.419Z,3.5
2018-12-25T00:49:49.711Z,3.5
2018-12-25T00:49:53.910Z,3.49
2018-12-25T00:49:58.201Z,3.5
2018-12-25T00:50:02.598Z,3.49
2018-12-25T00:50:06.891Z,3.5
2018-12-25T00:50:11.178Z,3.48
2018-12-25T00:50:15.463Z,3.48
2018-12-25T00:50:19.852Z,3.48
2018-12-25T00:50:24.151Z,3.48
2018-12-25T00:50:28.439Z,3.48
2018-12-25T00:50:32.727Z,3.47
2018-12-25T00:50:37.015Z,3.48
2018-12-25T00:50:41.308Z,3.47
2018-12-25T00:50:45.642Z,3.47
2018-12-25T00:50:49.939Z,3.47
2018-12-25T00:50:54.251Z,3.47
2018-12-25T00:50:58.564Z,3.47
2018-12-25T00:51:03.052Z,3.47
2018-12-25T00:51:07.335Z,3.46
2018-12-25T00:51:11.635Z,3.47
2018-12-25T00:51:15.927Z,3.47
2018-12-25T00:51:20.117Z,3.47
2018-12-25T00:51:24.411Z,3.46
2018-12-25T00:51:28.714Z,3.46
2018-12-25T00:51:33.016Z,3.46
2018-12-25T00:51:37.305Z,3.46
2018-12-25T00:51:41.495Z,3.46
2018-12-25T00:51:45.857Z,3.46
2018-12-25T00:51:50.067Z,3.46
2018-12-25T00:51:54.362Z,3.45
2018-12-25T00:51:58.559Z,3.46
2018-12-25T00:52:02.922Z,3.45
2018-12-25T00:52:07.208Z,3.46
2018-12-25T00:52:11.494Z,3.45
2018-12-25T00:52:15.684Z,3.46
2018-12-25T00:52:19.973Z,3.47
2018-12-25T00:52:24.173Z,3.46
2018-12-25T00:52:28.460Z,3.45
2018-12-25T00:52:32.755Z,3.45
2018-12-25T00:52:37.045Z,3.45
2018-12-25T00:52:41.337Z,3.46
2018-12-25T00:52:45.624Z,3.46
2018-12-25T00:52:49.908Z,3.44
2018-12-25T00:52:54.197Z,3.46
2018-12-25T00:52:58.481Z,3.45
2018-12-25T00:53:02.784Z,3.45
2018-12-25T00:53:07.077Z,3.45
2018-12-25T00:53:11.370Z,3.45
2018-12-25T00:53:15.560Z,3.45
2018-12-25T00:53:19.856Z,3.44
2018-12-25T00:53:24.147Z,3.45
2018-12-25T00:53:28.432Z,3.45
2018-12-25T00:53:32.719Z,3.45
2018-12-25T00:53:36.912Z,3.45
2018-12-25T00:53:41.106Z,3.44
2018-12-25T00:53:45.395Z,3.44
2018-12-25T00:53:49.680Z,3.45
2018-12-25T00:53:53.970Z,3.45
2018-12-25T00:53:58.265Z,3.46
2018-12-25T00:54:02.709Z,3.45
2018-12-25T00:54:06.905Z,3.45
2018-12-25T00:54:11.196Z,3.45
2018-12-25T00:54:15.482Z,3.44
2018-12-25T00:54:19.770Z,3.44
2018-12-25T00:54:24.056Z,3.45
2018-12-25T00:54:28.344Z,3.45
2018-12-25T00:54:32.631Z,3.46
2018-12-25T00:54:36.936Z,3.44
2018-12-25T00:54:41.130Z,3.44
2018-12-25T00:54:45.417Z,3.44
2018-12-25T00:54:49.701Z,3.45
2018-12-25T00:54:53.995Z,3.44
2018-12-25T00:54:58.207Z,3.44
2018-12-25T00:55:02.498Z,3.45
2018-12-25T00:55:06.793Z,3.45
2018-12-25T00:55:11.089Z,3.45
2018-12-25T00:55:15.289Z,3.45
2018-12-25T00:55:19.478Z,3.44
2018-12-25T00:55:23.805Z,3.45
2018-12-25T00:55:28.096Z,3.45
2018-12-25T00:55:32.289Z,3.45
2018-12-25T00:55:36.641Z,3.45
2018-12-25T00:55:40.925Z,3.45
2018-12-25T00:55:45.213Z,3.45
2018-12-25T00:55:49.502Z,3.45
2018-12-25T00:55:53.788Z,3.46
2018-12-25T00:55:58.001Z,3.44
2018-12-25T00:56:02.437Z,3.46
2018-12-25T00:56:06.733Z,3.45
2018-12-25T00:56:11.022Z,3.45
2018-12-25T00:56:15.308Z,3.44
2018-12-25T00:56:19.499Z,3.44
2018-12-25T00:56:23.783Z,3.45
2018-12-25T00:56:28.071Z,3.46
2018-12-25T00:56:32.362Z,3.45
2018-12-25T00:56:36.646Z,3.46
2018-12-25T00:56:40.930Z,3.45
2018-12-25T00:56:45.119Z,3.45
2018-12-25T00:56:49.311Z,3.45
2018-12-25T00:56:53.605Z,3.45
2018-12-25T00:56:57.887Z,3.45
2018-12-25T00:57:02.087Z,3.46
2018-12-25T00:57:06.377Z,3.45
2018-12-25T00:57:10.700Z,3.46
2018-12-25T00:57:14.985Z,3.45
2018-12-25T00:57:19.177Z,3.45
2018-12-25T00:57:23.465Z,3.45
2018-12-25T00:57:27.747Z,3.45
2018-12-25T00:57:32.134Z,3.45
2018-12-25T00:57:36.418Z,3.46